sensor_id;sensor_type;location;lat;lon;timestamp;pressure;altitude;pressure_sealevel;temperature;humidity
73692;BME280;61996;49.910;35.562;2022-07-22T00:00:36;98525.81;;;17.62;100.00
73692;BME280;61996;49.910;35.562;2022-07-22T00:03:39;98529.75;;;17.76;100.00
73692;BME280;61996;49.910;35.562;2022-07-22T00:06:43;98521.59;;;17.51;100.00
73692;BME280;61996;49.910;35.562;2022-07-22T00:09:46;98525.22;;;17.24;100.00
73692;BME280;61996;49.910;35.562;2022-07-22T00:12:49;98527.75;;;17.26;100.00
73692;BME280;61996;49.910;35.562;2022-07-22T00:15:51;98519.97;;;17.85;100.00
73692;BME280;61996;49.910;35.562;2022-07-22T00:18:54;98522.56;;;16.98;100.00
73692;BME280;61996;49.910;35.562;2022-07-22T00:21:59;98521.25;;;17.03;100.00
73692;BME280;61996;49.910;35.562;2022-07-22T00:25:02;98519.72;;;17.18;100.00
73692;BME280;61996;49.910;35.562;2022-07-22T00:28:06;98529.47;;;16.91;100.00
73692;BME280;61996;49.910;35.562;2022-07-22T00:31:08;98532.59;;;16.87;100.00
73692;BME280;61996;49.910;35.562;2022-07-22T00:34:11;98528.81;;;16.62;100.00
73692;BME280;61996;49.910;35.562;2022-07-22T00:37:16;98517.03;;;16.74;100.00
73692;BME280;61996;49.910;35.562;2022-07-22T00:40:18;98527.06;;;18.02;100.00
73692;BME280;61996;49.910;35.562;2022-07-22T00:43:21;98514.59;;;19.42;80.44
73692;BME280;61996;49.910;35.562;2022-07-22T00:46:25;98514.91;;;19.39;79.18
73692;BME280;61996;49.910;35.562;2022-07-22T00:49:28;98515.59;;;19.41;78.16
73692;BME280;61996;49.910;35.562;2022-07-22T00:52:33;98512.25;;;19.31;78.26
73692;BME280;61996;49.910;35.562;2022-07-22T00:55:36;98511.44;;;19.23;78.60
73692;BME280;61996;49.910;35.562;2022-07-22T00:58:39;98517.44;;;19.16;78.97
73692;BME280;61996;49.910;35.562;2022-07-22T01:01:41;98519.78;;;19.28;77.72
73692;BME280;61996;49.910;35.562;2022-07-22T01:04:47;98527.28;;;19.16;78.19
73692;BME280;61996;49.910;35.562;2022-07-22T01:07:52;98518.94;;;19.19;77.29
73692;BME280;61996;49.910;35.562;2022-07-22T01:10:55;98524.78;;;18.98;78.21
73692;BME280;61996;49.910;35.562;2022-07-22T01:14:08;98535.44;;;18.98;78.19
73692;BME280;61996;49.910;35.562;2022-07-22T01:17:10;98535.94;;;19.18;76.86
73692;BME280;61996;49.910;35.562;2022-07-22T01:20:15;98539.78;;;19.07;77.03
73692;BME280;61996;49.910;35.562;2022-07-22T01:23:17;98542.28;;;19.09;76.86
73692;BME280;61996;49.910;35.562;2022-07-22T01:26:20;98545.44;;;18.96;77.82
73692;BME280;61996;49.910;35.562;2022-07-22T01:29:23;98543.41;;;18.98;77.96
73692;BME280;61996;49.910;35.562;2022-07-22T01:32:26;98542.44;;;19.07;77.07
73692;BME280;61996;49.910;35.562;2022-07-22T01:35:30;98549.59;;;19.15;76.15
73692;BME280;61996;49.910;35.562;2022-07-22T01:38:33;98550.78;;;19.21;75.99
73692;BME280;61996;49.910;35.562;2022-07-22T01:41:36;98548.25;;;19.11;77.29
73692;BME280;61996;49.910;35.562;2022-07-22T01:44:39;98551.75;;;19.36;74.86
73692;BME280;61996;49.910;35.562;2022-07-22T01:47:41;98557.44;;;19.41;74.92
73692;BME280;61996;49.910;35.562;2022-07-22T01:50:46;98561.09;;;19.48;74.05
73692;BME280;61996;49.910;35.562;2022-07-22T01:53:49;98554.59;;;19.18;75.91
73692;BME280;61996;49.910;35.562;2022-07-22T01:56:52;98561.41;;;19.45;73.75
73692;BME280;61996;49.910;35.562;2022-07-22T01:59:54;98560.59;;;19.28;75.17
73692;BME280;61996;49.910;35.562;2022-07-22T02:02:57;98564.44;;;19.34;74.23
73692;BME280;61996;49.910;35.562;2022-07-22T02:06:02;98564.44;;;19.42;74.53
73692;BME280;61996;49.910;35.562;2022-07-22T02:09:05;98551.44;;;19.47;74.14
73692;BME280;61996;49.910;35.562;2022-07-22T02:12:08;98555.59;;;19.41;74.10
73692;BME280;61996;49.910;35.562;2022-07-22T02:15:11;98550.72;;;19.53;73.69
73692;BME280;61996;49.910;35.562;2022-07-22T02:18:14;98561.44;;;19.61;72.90
73692;BME280;61996;49.910;35.562;2022-07-22T02:21:19;98566.75;;;19.69;72.72
73692;BME280;61996;49.910;35.562;2022-07-22T02:24:22;98569.75;;;19.66;71.86
73692;BME280;61996;49.910;35.562;2022-07-22T02:27:25;98579.41;;;19.67;71.98
73692;BME280;61996;49.910;35.562;2022-07-22T02:30:28;98572.59;;;19.65;72.95
73692;BME280;61996;49.910;35.562;2022-07-22T02:33:31;98577.06;;;19.73;71.79
73692;BME280;61996;49.910;35.562;2022-07-22T02:36:36;98579.41;;;19.59;72.02
73692;BME280;61996;49.910;35.562;2022-07-22T02:39:39;98582.06;;;19.76;70.83
73692;BME280;61996;49.910;35.562;2022-07-22T02:42:42;98575.75;;;19.77;70.82
73692;BME280;61996;49.910;35.562;2022-07-22T02:45:45;98585.88;;;19.89;69.67
73692;BME280;61996;49.910;35.562;2022-07-22T02:48:48;98580.38;;;19.75;70.15
73692;BME280;61996;49.910;35.562;2022-07-22T02:51:52;98583.06;;;19.66;70.77
73692;BME280;61996;49.910;35.562;2022-07-22T02:54:54;98584.75;;;19.76;70.38
73692;BME280;61996;49.910;35.562;2022-07-22T02:57:59;98594.22;;;19.86;69.83
73692;BME280;61996;49.910;35.562;2022-07-22T03:01:06;98593.41;;;19.78;69.86
73692;BME280;61996;49.910;35.562;2022-07-22T03:04:09;98594.38;;;19.85;69.33
73692;BME280;61996;49.910;35.562;2022-07-22T03:07:13;98599.75;;;19.68;70.06
73692;BME280;61996;49.910;35.562;2022-07-22T03:10:16;98597.88;;;19.93;68.41
73692;BME280;61996;49.910;35.562;2022-07-22T03:13:18;98598.94;;;19.68;70.41
73692;BME280;61996;49.910;35.562;2022-07-22T03:16:21;98601.06;;;19.73;69.49
73692;BME280;61996;49.910;35.562;2022-07-22T03:19:24;98583.06;;;19.83;68.56
73692;BME280;61996;49.910;35.562;2022-07-22T03:22:28;98581.25;;;19.59;69.85
73692;BME280;61996;49.910;35.562;2022-07-22T03:25:31;98588.75;;;19.47;70.92
73692;BME280;61996;49.910;35.562;2022-07-22T03:28:34;98590.88;;;19.92;68.72
73692;BME280;61996;49.910;35.562;2022-07-22T03:31:36;98601.06;;;19.73;69.38
73692;BME280;61996;49.910;35.562;2022-07-22T03:34:39;98590.56;;;19.79;69.26
73692;BME280;61996;49.910;35.562;2022-07-22T03:37:43;98597.91;;;19.77;69.11
73692;BME280;61996;49.910;35.562;2022-07-22T03:40:46;98593.53;;;19.92;67.85
73692;BME280;61996;49.910;35.562;2022-07-22T03:43:49;98595.38;;;19.92;67.59
73692;BME280;61996;49.910;35.562;2022-07-22T03:46:52;98596.03;;;19.94;67.62
73692;BME280;61996;49.910;35.562;2022-07-22T03:49:55;98599.53;;;19.94;67.93
73692;BME280;61996;49.910;35.562;2022-07-22T03:53:01;98601.88;;;19.97;67.36
73692;BME280;61996;49.910;35.562;2022-07-22T03:56:04;98602.88;;;19.96;67.10
73692;BME280;61996;49.910;35.562;2022-07-22T03:59:07;98597.34;;;19.98;66.98
73692;BME280;61996;49.910;35.562;2022-07-22T04:02:09;98606.69;;;20.10;66.73
73692;BME280;61996;49.910;35.562;2022-07-22T04:05:12;98611.19;;;19.93;67.35
73692;BME280;61996;49.910;35.562;2022-07-22T04:08:17;98617.66;;;20.07;66.68
73692;BME280;61996;49.910;35.562;2022-07-22T04:11:20;98623.41;;;19.96;67.44
73692;BME280;61996;49.910;35.562;2022-07-22T04:14:23;98617.34;;;20.02;66.76
73692;BME280;61996;49.910;35.562;2022-07-22T04:17:25;98619.72;;;19.97;67.80
73692;BME280;61996;49.910;35.562;2022-07-22T04:20:28;98622.53;;;20.04;67.02
73692;BME280;61996;49.910;35.562;2022-07-22T04:23:32;98624.66;;;20.16;66.33
73692;BME280;61996;49.910;35.562;2022-07-22T04:26:35;98628.03;;;20.10;66.35
73692;BME280;61996;49.910;35.562;2022-07-22T04:29:38;98625.84;;;20.14;66.09
73692;BME280;61996;49.910;35.562;2022-07-22T04:32:41;98622.97;;;20.15;66.10
73692;BME280;61996;49.910;35.562;2022-07-22T04:35:44;98626.97;;;20.27;65.61
73692;BME280;61996;49.910;35.562;2022-07-22T04:38:48;98639.47;;;20.27;65.57
73692;BME280;61996;49.910;35.562;2022-07-22T04:41:51;98635.81;;;20.20;66.31
73692;BME280;61996;49.910;35.562;2022-07-22T04:44:54;98633.22;;;20.04;67.56
73692;BME280;61996;49.910;35.562;2022-07-22T04:47:57;98643.84;;;20.20;66.34
73692;BME280;61996;49.910;35.562;2022-07-22T04:51:00;98644.19;;;20.09;67.16
73692;BME280;61996;49.910;35.562;2022-07-22T04:54:04;98643.31;;;20.33;66.22
73692;BME280;61996;49.910;35.562;2022-07-22T04:57:07;98645.66;;;20.27;66.58
73692;BME280;61996;49.910;35.562;2022-07-22T05:00:10;98644.59;;;20.37;65.98
73692;BME280;61996;49.910;35.562;2022-07-22T05:03:13;98646.91;;;20.56;64.98
73692;BME280;61996;49.910;35.562;2022-07-22T05:06:16;98644.97;;;20.34;65.87
73692;BME280;61996;49.910;35.562;2022-07-22T05:09:20;98640.78;;;20.39;65.59
73692;BME280;61996;49.910;35.562;2022-07-22T05:12:23;98641.59;;;20.48;65.00
73692;BME280;61996;49.910;35.562;2022-07-22T05:15:26;98644.47;;;20.38;66.02
73692;BME280;61996;49.910;35.562;2022-07-22T05:18:29;98641.97;;;20.45;65.61
73692;BME280;61996;49.910;35.562;2022-07-22T05:21:32;98638.94;;;20.40;66.32
73692;BME280;61996;49.910;35.562;2022-07-22T05:24:36;98636.75;;;20.51;65.12
73692;BME280;61996;49.910;35.562;2022-07-22T05:27:46;98643.53;;;20.62;64.98
73692;BME280;61996;49.910;35.562;2022-07-22T05:30:51;98635.63;;;20.77;64.38
73692;BME280;61996;49.910;35.562;2022-07-22T05:33:54;98646.75;;;20.89;64.34
73692;BME280;61996;49.910;35.562;2022-07-22T05:36:57;98650.16;;;20.74;64.69
73692;BME280;61996;49.910;35.562;2022-07-22T05:40:01;98636.25;;;20.79;64.27
73692;BME280;61996;49.910;35.562;2022-07-22T05:43:04;98635.81;;;20.75;64.18
73692;BME280;61996;49.910;35.562;2022-07-22T05:46:07;98634.66;;;20.70;64.70
73692;BME280;61996;49.910;35.562;2022-07-22T05:49:10;98637.03;;;20.96;63.43
73692;BME280;61996;49.910;35.562;2022-07-22T05:52:13;98634.66;;;21.01;63.38
73692;BME280;61996;49.910;35.562;2022-07-22T05:55:17;98644.16;;;21.03;63.60
73692;BME280;61996;49.910;35.562;2022-07-22T05:58:20;98648.03;;;21.01;63.25
73692;BME280;61996;49.910;35.562;2022-07-22T06:01:22;98641.25;;;21.13;62.71
73692;BME280;61996;49.910;35.562;2022-07-22T06:04:26;98642.25;;;21.12;62.50
73692;BME280;61996;49.910;35.562;2022-07-22T06:07:28;98639.94;;;21.09;62.98
73692;BME280;61996;49.910;35.562;2022-07-22T06:10:33;98640.59;;;21.11;62.78
73692;BME280;61996;49.910;35.562;2022-07-22T06:13:36;98640.16;;;21.30;61.80
73692;BME280;61996;49.910;35.562;2022-07-22T06:16:39;98650.34;;;21.27;61.98
73692;BME280;61996;49.910;35.562;2022-07-22T06:19:42;98648.44;;;21.13;62.88
73692;BME280;61996;49.910;35.562;2022-07-22T06:22:45;98640.53;;;21.19;62.71
73692;BME280;61996;49.910;35.562;2022-07-22T06:25:49;98637.69;;;21.21;62.88
73692;BME280;61996;49.910;35.562;2022-07-22T06:28:51;98650.50;;;21.33;63.30
73692;BME280;61996;49.910;35.562;2022-07-22T06:31:55;98650.50;;;21.33;63.32
73692;BME280;61996;49.910;35.562;2022-07-22T06:34:58;98644.88;;;21.20;64.14
73692;BME280;61996;49.910;35.562;2022-07-22T06:38:00;98649.72;;;21.48;63.24
73692;BME280;61996;49.910;35.562;2022-07-22T06:41:09;98641.78;;;21.54;62.76
73692;BME280;61996;49.910;35.562;2022-07-22T06:44:12;98652.38;;;21.71;62.38
73692;BME280;61996;49.910;35.562;2022-07-22T06:47:15;98655.59;;;21.66;61.75
73692;BME280;61996;49.910;35.562;2022-07-22T06:50:18;98661.13;;;21.42;61.27
73692;BME280;61996;49.910;35.562;2022-07-22T06:53:21;98663.13;;;21.62;61.75
73692;BME280;61996;49.910;35.562;2022-07-22T06:56:26;98657.69;;;21.56;61.85
73692;BME280;61996;49.910;35.562;2022-07-22T06:59:29;98657.63;;;21.64;61.20
73692;BME280;61996;49.910;35.562;2022-07-22T07:02:32;98661.13;;;21.65;60.42
73692;BME280;61996;49.910;35.562;2022-07-22T07:05:34;98656.22;;;21.68;60.29
73692;BME280;61996;49.910;35.562;2022-07-22T07:08:37;98661.97;;;21.65;60.47
73692;BME280;61996;49.910;35.562;2022-07-22T07:11:42;98662.25;;;19.33;68.83
73692;BME280;61996;49.910;35.562;2022-07-22T07:14:46;98668.44;;;19.58;69.71
73692;BME280;61996;49.910;35.562;2022-07-22T07:18:09;98665.75;;;19.42;73.76
73692;BME280;61996;49.910;35.562;2022-07-22T07:21:12;98660.34;;;20.32;67.92
73692;BME280;61996;49.910;35.562;2022-07-22T07:24:15;98668.72;;;19.23;75.12
73692;BME280;61996;49.910;35.562;2022-07-22T07:27:19;98663.75;;;19.93;70.44
73692;BME280;61996;49.910;35.562;2022-07-22T07:30:25;98655.41;;;19.80;72.82
73692;BME280;61996;49.910;35.562;2022-07-22T07:33:28;98670.72;;;19.37;72.26
73692;BME280;61996;49.910;35.562;2022-07-22T07:36:31;98678.19;;;19.25;72.77
73692;BME280;61996;49.910;35.562;2022-07-22T07:39:36;98678.09;;;18.84;75.96
73692;BME280;61996;49.910;35.562;2022-07-22T07:42:43;98674.38;;;18.35;80.13
73692;BME280;61996;49.910;35.562;2022-07-22T07:45:51;98663.88;;;18.33;80.84
73692;BME280;61996;49.910;35.562;2022-07-22T07:48:55;98667.78;;;17.69;87.54
73692;BME280;61996;49.910;35.562;2022-07-22T07:51:58;98674.94;;;18.47;78.14
73692;BME280;61996;49.910;35.562;2022-07-22T07:55:01;98668.09;;;17.84;85.25
73692;BME280;61996;49.910;35.562;2022-07-22T07:58:14;98671.56;;;17.85;82.44
73692;BME280;61996;49.910;35.562;2022-07-22T08:01:17;98669.25;;;19.67;69.43
73692;BME280;61996;49.910;35.562;2022-07-22T08:04:22;98679.22;;;18.40;82.22
73692;BME280;61996;49.910;35.562;2022-07-22T08:07:45;98668.84;;;20.27;68.41
73692;BME280;61996;49.910;35.562;2022-07-22T08:10:48;98675.03;;;19.13;74.04
73692;BME280;61996;49.910;35.562;2022-07-22T08:14:02;98675.06;;;19.38;70.20
73692;BME280;61996;49.910;35.562;2022-07-22T08:17:07;98674.41;;;20.01;67.38
73692;BME280;61996;49.910;35.562;2022-07-22T08:20:11;98689.78;;;19.58;66.37
73692;BME280;61996;49.910;35.562;2022-07-22T08:23:22;98681.91;;;19.40;69.94
73692;BME280;61996;49.910;35.562;2022-07-22T08:26:27;98691.25;;;18.78;74.31
73692;BME280;61996;49.910;35.562;2022-07-22T08:29:34;98689.47;;;18.60;81.11
73692;BME280;61996;49.910;35.562;2022-07-22T08:32:37;98688.84;;;18.32;83.47
73692;BME280;61996;49.910;35.562;2022-07-22T08:35:40;98689.47;;;18.60;77.55
73692;BME280;61996;49.910;35.562;2022-07-22T08:38:43;98686.59;;;19.87;71.75
73692;BME280;61996;49.910;35.562;2022-07-22T08:41:46;98681.84;;;21.17;63.26
73692;BME280;61996;49.910;35.562;2022-07-22T08:44:51;98682.78;;;21.24;62.08
73692;BME280;61996;49.910;35.562;2022-07-22T08:47:59;98691.78;;;21.54;61.11
73692;BME280;61996;49.910;35.562;2022-07-22T08:51:04;98695.00;;;21.72;60.61
73692;BME280;61996;49.910;35.562;2022-07-22T08:54:08;98682.41;;;21.96;60.90
73692;BME280;61996;49.910;35.562;2022-07-22T08:57:11;98686.00;;;22.26;59.54
73692;BME280;61996;49.910;35.562;2022-07-22T09:00:16;98685.44;;;22.15;58.81
73692;BME280;61996;49.910;35.562;2022-07-22T09:03:21;98700.97;;;22.20;58.30
73692;BME280;61996;49.910;35.562;2022-07-22T09:06:25;98707.94;;;22.06;58.72
73692;BME280;61996;49.910;35.562;2022-07-22T09:09:31;98687.34;;;22.07;58.94
73692;BME280;61996;49.910;35.562;2022-07-22T09:12:34;98702.72;;;22.13;58.85
73692;BME280;61996;49.910;35.562;2022-07-22T09:15:54;98699.31;;;22.19;58.85
73692;BME280;61996;49.910;35.562;2022-07-22T09:18:57;98708.81;;;22.22;58.36
73692;BME280;61996;49.910;35.562;2022-07-22T09:22:00;98700.47;;;22.16;58.66
73692;BME280;61996;49.910;35.562;2022-07-22T09:25:20;98709.84;;;22.35;58.03
73692;BME280;61996;49.910;35.562;2022-07-22T09:28:23;98707.81;;;22.37;57.65
73692;BME280;61996;49.910;35.562;2022-07-22T09:31:30;98714.47;;;22.27;57.70
73692;BME280;61996;49.910;35.562;2022-07-22T09:34:36;98720.06;;;22.32;57.88
73692;BME280;61996;49.910;35.562;2022-07-22T09:37:47;98721.88;;;22.39;58.24
73692;BME280;61996;49.910;35.562;2022-07-22T09:40:50;98724.88;;;22.36;57.92
73692;BME280;61996;49.910;35.562;2022-07-22T09:43:53;98714.34;;;22.79;57.08
73692;BME280;61996;49.910;35.562;2022-07-22T09:47:01;98720.19;;;22.83;56.42
73692;BME280;61996;49.910;35.562;2022-07-22T09:50:04;98714.00;;;22.67;56.32
73692;BME280;61996;49.910;35.562;2022-07-22T09:53:16;98722.88;;;22.83;56.12
73692;BME280;61996;49.910;35.562;2022-07-22T09:56:19;98710.41;;;22.75;56.54
73692;BME280;61996;49.910;35.562;2022-07-22T09:59:22;98710.22;;;22.91;55.80
73692;BME280;61996;49.910;35.562;2022-07-22T10:02:28;98727.66;;;23.17;56.18
73692;BME280;61996;49.910;35.562;2022-07-22T10:05:33;98723.59;;;23.06;55.17
73692;BME280;61996;49.910;35.562;2022-07-22T10:08:37;98723.63;;;22.91;55.76
73692;BME280;61996;49.910;35.562;2022-07-22T10:11:40;98721.66;;;22.85;55.20
73692;BME280;61996;49.910;35.562;2022-07-22T10:14:46;98726.09;;;22.78;55.27
73692;BME280;61996;49.910;35.562;2022-07-22T10:17:52;98733.41;;;22.84;55.11
73692;BME280;61996;49.910;35.562;2022-07-22T10:21:03;98728.44;;;22.96;55.16
73692;BME280;61996;49.910;35.562;2022-07-22T10:24:07;98724.72;;;22.82;55.45
73692;BME280;61996;49.910;35.562;2022-07-22T10:27:13;98733.13;;;22.79;55.42
73692;BME280;61996;49.910;35.562;2022-07-22T10:30:16;98730.44;;;22.64;56.32
73692;BME280;61996;49.910;35.562;2022-07-22T10:33:24;98726.84;;;22.72;56.07
73692;BME280;61996;49.910;35.562;2022-07-22T10:36:33;98724.72;;;22.67;57.12
73692;BME280;61996;49.910;35.562;2022-07-22T10:39:36;98732.19;;;22.57;57.30
73692;BME280;61996;49.910;35.562;2022-07-22T10:43:03;98724.16;;;22.57;57.37
73692;BME280;61996;49.910;35.562;2022-07-22T10:46:08;98726.38;;;22.68;56.62
73692;BME280;61996;49.910;35.562;2022-07-22T10:49:16;98739.41;;;22.71;57.00
73692;BME280;61996;49.910;35.562;2022-07-22T10:52:20;98744.31;;;22.68;57.75
73692;BME280;61996;49.910;35.562;2022-07-22T10:55:35;98745.59;;;22.57;57.09
73692;BME280;61996;49.910;35.562;2022-07-22T10:58:42;98746.63;;;22.56;58.16
73692;BME280;61996;49.910;35.562;2022-07-22T11:01:47;98741.53;;;22.61;57.69
73692;BME280;61996;49.910;35.562;2022-07-22T11:04:52;98743.66;;;22.66;57.75
73692;BME280;61996;49.910;35.562;2022-07-22T11:07:56;98736.47;;;22.81;57.38
73692;BME280;61996;49.910;35.562;2022-07-22T11:11:00;98730.53;;;23.01;57.65
73692;BME280;61996;49.910;35.562;2022-07-22T11:14:03;98726.81;;;23.02;57.96
73692;BME280;61996;49.910;35.562;2022-07-22T11:17:13;98722.09;;;23.18;56.18
73692;BME280;61996;49.910;35.562;2022-07-22T11:20:17;98720.72;;;23.08;56.44
73692;BME280;61996;49.910;35.562;2022-07-22T11:23:24;98718.63;;;23.39;55.82
73692;BME280;61996;49.910;35.562;2022-07-22T11:26:31;98713.75;;;23.49;55.75
73692;BME280;61996;49.910;35.562;2022-07-22T11:29:37;98711.97;;;23.71;55.14
73692;BME280;61996;49.910;35.562;2022-07-22T11:32:42;98705.84;;;23.63;54.77
73692;BME280;61996;49.910;35.562;2022-07-22T11:39:14;98703.81;;;23.86;55.49
73692;BME280;61996;49.910;35.562;2022-07-22T11:42:20;98709.75;;;23.82;56.27
73692;BME280;61996;49.910;35.562;2022-07-22T11:45:22;98705.03;;;23.05;58.02
73692;BME280;61996;49.910;35.562;2022-07-22T11:48:25;98698.13;;;21.99;61.72
73692;BME280;61996;49.910;35.562;2022-07-22T11:51:29;98702.63;;;22.65;59.73
73692;BME280;61996;49.910;35.562;2022-07-22T11:54:35;98708.44;;;22.25;59.89
73692;BME280;61996;49.910;35.562;2022-07-22T11:57:45;98702.28;;;22.54;59.26
73692;BME280;61996;49.910;35.562;2022-07-22T12:00:48;98705.41;;;22.42;59.21
73692;BME280;61996;49.910;35.562;2022-07-22T12:03:53;98692.56;;;24.60;53.09
73692;BME280;61996;49.910;35.562;2022-07-22T12:06:57;98694.00;;;26.11;47.97
73692;BME280;61996;49.910;35.562;2022-07-22T12:10:02;98697.69;;;27.53;44.69
73692;BME280;61996;49.910;35.562;2022-07-22T12:13:05;98701.84;;;28.12;42.59
73692;BME280;61996;49.910;35.562;2022-07-22T12:16:18;98702.03;;;26.64;45.05
73692;BME280;61996;49.910;35.562;2022-07-22T12:19:21;98694.78;;;25.39;49.21
73692;BME280;61996;49.910;35.562;2022-07-22T12:22:24;98702.84;;;27.93;44.08
73692;BME280;61996;49.910;35.562;2022-07-22T12:25:28;98692.81;;;24.65;51.95
73692;BME280;61996;49.910;35.562;2022-07-22T12:28:32;98696.50;;;24.57;53.16
73692;BME280;61996;49.910;35.562;2022-07-22T12:31:41;98703.44;;;23.68;55.62
73692;BME280;61996;49.910;35.562;2022-07-22T12:34:44;98706.28;;;23.23;55.20
73692;BME280;61996;49.910;35.562;2022-07-22T12:37:48;98715.44;;;27.74;44.97
73692;BME280;61996;49.910;35.562;2022-07-22T12:40:52;98700.00;;;26.13;47.28
73692;BME280;61996;49.910;35.562;2022-07-22T12:43:55;98704.56;;;26.19;47.16
73692;BME280;61996;49.910;35.562;2022-07-22T12:46:59;98704.81;;;24.06;51.42
73692;BME280;61996;49.910;35.562;2022-07-22T12:50:14;98701.03;;;25.73;47.84
73692;BME280;61996;49.910;35.562;2022-07-22T12:53:17;98709.22;;;25.25;48.82
73692;BME280;61996;49.910;35.562;2022-07-22T12:56:21;98703.28;;;28.14;42.92
73692;BME280;61996;49.910;35.562;2022-07-22T12:59:24;98694.72;;;24.78;50.18
73692;BME280;61996;49.910;35.562;2022-07-22T13:02:27;98691.56;;;24.68;50.89
73692;BME280;61996;49.910;35.562;2022-07-22T13:05:31;98693.97;;;23.93;53.33
73692;BME280;61996;49.910;35.562;2022-07-22T13:08:35;98705.25;;;23.46;55.01
73692;BME280;61996;49.910;35.562;2022-07-22T13:11:49;98706.16;;;22.95;55.90
73692;BME280;61996;49.910;35.562;2022-07-22T13:15:05;98708.72;;;21.92;58.60
73692;BME280;61996;49.910;35.562;2022-07-22T13:18:08;98723.44;;;22.49;58.91
73692;BME280;61996;49.910;35.562;2022-07-22T13:21:11;98725.50;;;22.09;60.82
73692;BME280;61996;49.910;35.562;2022-07-22T13:24:13;98720.94;;;22.32;58.54
73692;BME280;61996;49.910;35.562;2022-07-22T13:27:18;98726.25;;;21.95;57.48
73692;BME280;61996;49.910;35.562;2022-07-22T13:30:21;98716.06;;;20.90;60.54
73692;BME280;61996;49.910;35.562;2022-07-22T13:33:24;98710.31;;;20.62;61.29
73692;BME280;61996;49.910;35.562;2022-07-22T13:36:27;98721.16;;;21.39;60.07
73692;BME280;61996;49.910;35.562;2022-07-22T13:39:33;98707.28;;;20.73;63.65
73692;BME280;61996;49.910;35.562;2022-07-22T13:42:39;98713.34;;;20.98;62.69
73692;BME280;61996;49.910;35.562;2022-07-22T13:45:42;98707.72;;;20.93;60.79
73692;BME280;61996;49.910;35.562;2022-07-22T13:48:45;98715.78;;;19.97;67.90
73692;BME280;61996;49.910;35.562;2022-07-22T13:51:50;98707.88;;;20.52;66.82
73692;BME280;61996;49.910;35.562;2022-07-22T13:54:53;98716.06;;;20.26;70.32
73692;BME280;61996;49.910;35.562;2022-07-22T13:57:57;98725.63;;;20.05;69.80
73692;BME280;61996;49.910;35.562;2022-07-22T14:01:00;98723.44;;;20.00;68.01
73692;BME280;61996;49.910;35.562;2022-07-22T14:04:04;98723.03;;;19.30;73.60
73692;BME280;61996;49.910;35.562;2022-07-22T14:07:09;98709.72;;;20.52;67.29
73692;BME280;61996;49.910;35.562;2022-07-22T14:10:13;98717.47;;;19.90;67.90
73692;BME280;61996;49.910;35.562;2022-07-22T14:13:17;98706.31;;;20.66;66.04
73692;BME280;61996;49.910;35.562;2022-07-22T14:16:20;98703.72;;;22.71;57.98
73692;BME280;61996;49.910;35.562;2022-07-22T14:19:58;98707.13;;;24.38;52.51
73692;BME280;61996;49.910;35.562;2022-07-22T14:23:02;98711.97;;;22.99;57.11
73692;BME280;61996;49.910;35.562;2022-07-22T14:26:06;98711.13;;;22.84;57.15
73692;BME280;61996;49.910;35.562;2022-07-22T14:29:11;98714.00;;;23.33;55.02
73692;BME280;61996;49.910;35.562;2022-07-22T14:32:13;98715.63;;;24.41;51.64
73692;BME280;61996;49.910;35.562;2022-07-22T14:35:16;98718.06;;;24.36;51.73
73692;BME280;61996;49.910;35.562;2022-07-22T14:38:19;98735.66;;;24.17;52.02
73692;BME280;61996;49.910;35.562;2022-07-22T14:41:22;98726.56;;;24.18;51.71
73692;BME280;61996;49.910;35.562;2022-07-22T14:44:26;98725.34;;;24.42;51.40
73692;BME280;61996;49.910;35.562;2022-07-22T14:47:29;98727.19;;;24.14;53.44
73692;BME280;61996;49.910;35.562;2022-07-22T14:50:32;98724.34;;;24.22;52.80
73692;BME280;61996;49.910;35.562;2022-07-22T14:53:35;98733.06;;;23.60;54.08
73692;BME280;61996;49.910;35.562;2022-07-22T14:56:38;98730.00;;;22.61;57.65
73692;BME280;61996;49.910;35.562;2022-07-22T14:59:42;98733.03;;;21.82;61.57
73692;BME280;61996;49.910;35.562;2022-07-22T15:02:45;98736.91;;;22.40;59.02
73692;BME280;61996;49.910;35.562;2022-07-22T15:05:47;98727.50;;;22.07;60.20
73692;BME280;61996;49.910;35.562;2022-07-22T15:08:51;98734.78;;;21.75;64.44
73692;BME280;61996;49.910;35.562;2022-07-22T15:11:53;98740.94;;;22.22;63.21
73692;BME280;61996;49.910;35.562;2022-07-22T15:14:58;98731.22;;;21.37;70.00
73692;BME280;61996;49.910;35.562;2022-07-22T15:18:02;98747.59;;;21.34;68.69
73692;BME280;61996;49.910;35.562;2022-07-22T15:21:05;98734.00;;;21.89;64.04
73692;BME280;61996;49.910;35.562;2022-07-22T15:24:08;98746.78;;;22.02;63.47
73692;BME280;61996;49.910;35.562;2022-07-22T15:27:10;98751.19;;;21.49;65.12
73692;BME280;61996;49.910;35.562;2022-07-22T15:30:15;98745.94;;;21.25;65.51
73692;BME280;61996;49.910;35.562;2022-07-22T15:33:18;98753.97;;;21.25;67.83
73692;BME280;61996;49.910;35.562;2022-07-22T15:36:36;98763.44;;;21.44;65.78
73692;BME280;61996;49.910;35.562;2022-07-22T15:39:40;98772.50;;;21.26;66.24
73692;BME280;61996;49.910;35.562;2022-07-22T15:42:42;98763.94;;;21.70;64.41
73692;BME280;61996;49.910;35.562;2022-07-22T15:45:48;98776.28;;;21.09;65.49
73692;BME280;61996;49.910;35.562;2022-07-22T15:48:51;98778.97;;;21.71;63.15
73692;BME280;61996;49.910;35.562;2022-07-22T15:51:53;98774.84;;;21.83;62.79
73692;BME280;61996;49.910;35.562;2022-07-22T15:54:56;98778.47;;;21.45;61.58
73692;BME280;61996;49.910;35.562;2022-07-22T15:58:00;98786.59;;;21.28;62.35
73692;BME280;61996;49.910;35.562;2022-07-22T16:01:22;98775.47;;;21.08;62.88
73692;BME280;61996;49.910;35.562;2022-07-22T16:04:25;98780.16;;;20.98;66.03
73692;BME280;61996;49.910;35.562;2022-07-22T16:07:28;98784.00;;;21.04;63.29